Fairview, Montana
Current Conditions -  °F | °C
As of 2:55 PM on Thursday 27 Nov 2014 (Local Time) from KSDY Reporting Station
Broken Clouds Broken Clouds  
Wind Chill: 23°   Ceiling: 9000
Heat Index: 30°   Visibility: 10mi
Dew Point: 25°   Wind: 7mph
Humidity: 80%   Direction: 140°SE
Pressure: 29.83"   Gusts: NA
Location:  47.86°N, 104.04°W
Report Text: KSDY 272155Z AUTO 14006KT 10SM BKN090 M01/M04 A2983 RMK AO1
Loading
Personal Weather Stations






























Interactive Weather Map New forecast layout! Learn more

10-Day Weather Forecast

Advertisements
Track Severe Weather on mobile